Time;durP1;ratioP1;P1;durP2;ratioP2;P2;SDS_P1;SDS_P2;PMS_P1;PMS_P2;Temp;Humidity;BMP_temperature;BMP_pressure;BME280_temperature;BME280_humidity;BME280_pressure;Samples;Min_cycle;Max_cycle;Signal;HPM_P1;HPM_P2
2023/02/16 00:01:29;;;;;;;5.00;2.37;;;3.70;97.30;;;;;;5060066;28;20198;-84
2023/02/16 00:03:55;;;;;;;3.40;2.97;;;3.70;97.30;;;;;;5060220;28;20229;-84
2023/02/16 00:06:22;;;;;;;1.90;1.80;;;3.60;97.30;;;;;;5060447;28;20441;-82
2023/02/16 00:08:50;;;;;;;3.30;3.10;;;3.60;97.30;;;;;;5078026;28;20449;-84
2023/02/16 00:14:17;;;;;;;4.40;3.03;;;3.60;97.30;;;;;;5069208;28;20428;-83
2023/02/16 00:16:43;;;;;;;5.00;2.33;;;3.60;97.30;;;;;;5058883;28;20438;-84
2023/02/16 00:19:36;;;;;;;6.93;3.43;;;3.60;97.30;;;;;;5058615;28;20453;-84
2023/02/16 00:22:03;;;;;;;9.83;2.50;;;3.60;97.30;;;;;;5056306;28;20184;-84
2023/02/16 00:24:30;;;;;;;4.90;2.70;;;3.60;97.30;;;;;;5059401;28;20410;-84
2023/02/16 00:26:56;;;;;;;2.37;2.17;;;3.50;97.30;;;;;;5058717;28;20437;-84
2023/02/16 00:29:33;;;;;;;14.23;3.73;;;3.50;97.30;;;;;;5076912;28;20410;-84
2023/02/16 00:32:00;;;;;;;2.10;1.87;;;3.50;97.30;;;;;;5058411;28;20500;-84
2023/02/16 00:34:37;;;;;;;3.50;3.30;;;3.50;97.30;;;;;;5058868;28;20761;-85
2023/02/16 00:37:11;;;;;;;7.33;3.67;;;3.50;97.30;;;;;;5058813;28;20437;-83
2023/02/16 00:39:38;;;;;;;3.23;3.03;;;3.40;97.30;;;;;;5058390;28;20468;-84
2023/02/16 00:42:19;;;;;;;2.83;2.13;;;3.40;97.30;;;;;;5059019;28;20421;-84
2023/02/16 00:44:50;;;;;;;2.70;2.50;;;3.40;97.30;;;;;;5069177;28;20438;-83
2023/02/16 00:47:20;;;;;;;3.50;3.17;;;3.40;97.30;;;;;;5058559;28;20461;-83
2023/02/16 00:49:47;;;;;;;7.07;2.50;;;3.40;97.30;;;;;;5058670;28;20418;-82
2023/02/16 00:52:33;;;;;;;2.23;2.10;;;3.40;97.30;;;;;;5076240;28;20427;-84
2023/02/16 00:55:01;;;;;;;3.50;3.30;;;3.30;97.30;;;;;;5060997;28;20458;-83
2023/02/16 00:57:31;;;;;;;6.43;4.13;;;3.30;97.30;;;;;;5069116;28;20508;-84
2023/02/16 01:00:21;;;;;;;12.30;2.37;;;3.30;97.30;;;;;;5083340;28;20463;-84
2023/02/16 01:02:49;;;;;;;5.60;3.47;;;3.30;97.30;;;;;;5070673;28;20421;-85
2023/02/16 01:05:14;;;;;;;3.20;2.93;;;3.30;97.30;;;;;;5058055;28;20410;-84
2023/02/16 01:13:11;;;;;;;1.80;1.70;;;3.20;97.30;;;;;;5083521;28;20654;-83
2023/02/16 01:15:37;;;;;;;6.30;4.57;;;3.20;97.30;;;;;;5087781;28;20473;-83
2023/02/16 01:18:04;;;;;;;4.23;3.97;;;3.20;97.30;;;;;;5080726;28;20428;-84
2023/02/16 01:20:29;;;;;;;4.63;2.73;;;3.20;97.30;;;;;;5057519;28;20524;-84
2023/02/16 01:22:55;;;;;;;3.43;2.47;;;3.20;97.30;;;;;;5065707;28;20990;-84
2023/02/16 01:25:20;;;;;;;2.50;2.30;;;3.20;97.30;;;;;;5073811;28;20220;-83
2023/02/16 01:27:46;;;;;;;9.43;2.53;;;3.10;97.30;;;;;;5067956;28;20175;-83
2023/02/16 01:30:17;;;;;;;2.90;2.03;;;3.10;97.30;;;;;;5069277;28;20278;-84
2023/02/16 01:32:46;;;;;;;5.40;3.07;;;3.10;97.30;;;;;;5074896;28;20414;-83
2023/02/16 01:35:11;;;;;;;2.80;2.30;;;3.10;97.30;;;;;;5060104;28;20437;-84
2023/02/16 01:37:37;;;;;;;4.80;3.53;;;3.10;97.30;;;;;;5063321;28;20437;-84
2023/02/16 01:40:04;;;;;;;6.63;4.23;;;3.10;97.30;;;;;;5065642;28;20201;-84
2023/02/16 01:42:46;;;;;;;3.37;3.17;;;3.10;97.30;;;;;;5058260;28;20171;-84
2023/02/16 01:45:16;;;;;;;3.23;2.07;;;3.10;97.30;;;;;;5061547;28;20413;-85
2023/02/16 01:47:48;;;;;;;4.80;3.60;;;3.10;97.30;;;;;;5064044;28;20465;-84
2023/02/16 01:50:19;;;;;;;5.60;2.63;;;3.10;97.30;;;;;;5065080;28;20504;-84
2023/02/16 01:53:11;;;;;;;5.50;4.43;;;3.10;97.30;;;;;;5068819;28;20699;-83
2023/02/16 01:55:50;;;;;;;13.47;4.20;;;3.10;97.30;;;;;;5075217;28;20483;-84
2023/02/16 01:58:39;;;;;;;2.53;2.33;;;3.10;97.30;;;;;;5075337;28;20466;-84
2023/02/16 02:01:27;;;;;;;3.27;3.07;;;3.00;97.30;;;;;;5069349;28;20849;-83
2023/02/16 02:06:36;;;;;;;3.23;2.43;;;3.00;97.30;;;;;;5092093;28;20435;-84
2023/02/16 02:09:13;;;;;;;2.77;2.57;;;3.00;97.30;;;;;;5065402;28;20409;-84
2023/02/16 02:11:48;;;;;;;4.57;4.30;;;3.00;97.30;;;;;;5063653;28;20205;-83
2023/02/16 02:14:22;;;;;;;3.63;3.37;;;2.90;97.30;;;;;;5057578;28;20470;-84
2023/02/16 02:17:07;;;;;;;2.50;2.13;;;2.90;97.30;;;;;;5057604;28;20437;-84
2023/02/16 02:19:50;;;;;;;3.30;2.60;;;2.90;97.30;;;;;;5067905;28;20508;-84
2023/02/16 02:26:00;;;;;;;8.20;4.07;;;2.90;97.30;;;;;;5073889;28;20436;-84
2023/02/16 02:28:36;;;;;;;2.97;2.77;;;2.90;97.30;;;;;;5072985;28;20413;-84
2023/02/16 02:31:46;;;;;;;4.33;2.67;;;2.80;97.30;;;;;;5071187;28;20420;-84
2023/02/16 02:34:17;;;;;;;3.23;3.13;;;2.80;97.30;;;;;;4994892;28;20437;-84
2023/02/16 02:37:01;;;;;;;2.50;1.93;;;2.80;97.30;;;;;;5065674;28;20464;-84
2023/02/16 02:39:51;;;;;;;9.07;4.53;;;2.80;97.30;;;;;;5060306;28;20451;-84
2023/02/16 02:42:37;;;;;;;4.60;3.13;;;2.80;97.30;;;;;;5066266;28;20461;-83
2023/02/16 02:45:08;;;;;;;1.70;1.60;;;2.80;97.30;;;;;;5061989;28;20419;-85
2023/02/16 02:47:43;;;;;;;2.03;1.90;;;2.80;97.30;;;;;;5069183;28;20525;-84
2023/02/16 02:50:24;;;;;;;3.10;2.20;;;2.90;97.30;;;;;;5068611;28;20699;-84
2023/02/16 02:52:49;;;;;;;9.53;3.73;;;2.90;97.30;;;;;;5072715;28;20853;-84
2023/02/16 03:00:46;;;;;;;1.93;1.63;;;2.80;97.30;;;;;;5080064;28;20597;-84
2023/02/16 03:03:31;;;;;;;6.17;3.40;;;2.80;97.30;;;;;;5073808;28;20421;-83
2023/02/16 03:06:18;;;;;;;6.73;3.17;;;2.80;97.30;;;;;;5054171;28;20830;-84
2023/02/16 03:08:46;;;;;;;3.20;2.73;;;2.80;97.30;;;;;;5068822;28;20505;-85
2023/02/16 03:14:19;;;;;;;3.90;2.50;;;2.70;97.30;;;;;;5072764;28;20552;-84
2023/02/16 03:31:06;;;;;;;5.10;3.10;;;2.60;97.30;;;;;;5092635;28;20455;-84
2023/02/16 03:33:32;;;;;;;1.97;1.87;;;2.60;97.30;;;;;;5078229;28;20424;-84
2023/02/16 03:35:58;;;;;;;5.80;3.53;;;2.60;97.30;;;;;;5077555;28;20820;-83
2023/02/16 03:38:25;;;;;;;2.47;2.10;;;2.60;97.30;;;;;;5071261;28;20557;-84
2023/02/16 03:40:51;;;;;;;19.03;4.33;;;2.60;97.30;;;;;;5071008;28;20937;-84
2023/02/16 03:43:17;;;;;;;5.47;3.60;;;2.60;97.30;;;;;;5082389;28;20471;-84
2023/02/16 03:45:43;;;;;;;3.13;2.83;;;2.60;97.30;;;;;;5078139;28;20437;-83
2023/02/16 03:48:09;;;;;;;4.50;4.20;;;2.60;97.30;;;;;;5062336;28;20222;-84
2023/02/16 03:50:35;;;;;;;5.20;2.87;;;2.50;97.30;;;;;;5066329;28;20441;-84
2023/02/16 03:53:07;;;;;;;2.80;2.60;;;2.50;97.30;;;;;;5068602;28;20520;-84
2023/02/16 03:55:44;;;;;;;3.33;1.83;;;2.50;97.30;;;;;;5061418;28;20441;-84
2023/02/16 03:58:12;;;;;;;8.27;3.13;;;2.50;97.30;;;;;;5065975;28;20509;-84
2023/02/16 04:00:39;;;;;;;4.63;3.00;;;2.50;97.30;;;;;;5082259;28;20563;-85
2023/02/16 04:03:05;;;;;;;4.67;3.00;;;2.50;97.30;;;;;;5065503;28;20417;-87
2023/02/16 04:05:31;;;;;;;6.90;3.67;;;2.50;97.30;;;;;;5083809;28;20519;-86
2023/02/16 04:07:57;;;;;;;3.30;3.13;;;2.50;97.30;;;;;;5065653;28;20414;-83
2023/02/16 04:10:23;;;;;;;4.80;4.00;;;2.50;97.30;;;;;;5065377;28;20459;-84
2023/02/16 04:12:48;;;;;;;2.00;1.90;;;2.50;97.30;;;;;;5066828;28;20179;-84
2023/02/16 04:15:19;;;;;;;5.30;4.70;;;2.40;97.30;;;;;;5067474;28;20417;-84
2023/02/16 04:17:45;;;;;;;7.33;3.37;;;2.40;97.30;;;;;;5084020;28;20186;-84
2023/02/16 04:20:14;;;;;;;4.57;4.30;;;2.40;97.30;;;;;;5064200;28;20461;-84
2023/02/16 04:22:40;;;;;;;6.40;5.77;;;2.40;97.30;;;;;;5064300;28;20433;-85
2023/02/16 04:25:07;;;;;;;3.37;3.17;;;2.40;97.30;;;;;;5068176;28;20418;-84
2023/02/16 04:27:33;;;;;;;4.23;3.77;;;2.40;97.30;;;;;;5084533;28;20409;-84
2023/02/16 04:29:58;;;;;;;4.10;3.00;;;2.40;97.30;;;;;;5064038;28;20860;-84
2023/02/16 04:32:24;;;;;;;4.77;3.87;;;2.40;97.30;;;;;;5066934;28;20230;-84
2023/02/16 04:34:49;;;;;;;8.10;5.27;;;2.40;97.30;;;;;;5070267;28;20171;-84
2023/02/16 04:37:15;;;;;;;9.10;4.13;;;2.40;97.30;;;;;;5066054;28;20202;-84
2023/02/16 04:39:40;;;;;;;3.73;3.37;;;2.40;97.30;;;;;;5060854;28;20398;-85
2023/02/16 04:42:05;;;;;;;4.63;4.27;;;2.40;97.30;;;;;;5067421;28;20178;-83
2023/02/16 04:44:32;;;;;;;5.33;5.10;;;2.40;97.30;;;;;;5065507;28;20189;-84
2023/02/16 04:46:58;;;;;;;3.20;2.97;;;2.40;97.30;;;;;;5068450;28;20245;-84
2023/02/16 04:49:23;;;;;;;10.73;4.67;;;2.30;97.30;;;;;;5065631;28;20440;-84
2023/02/16 04:51:48;;;;;;;7.07;6.67;;;2.30;97.30;;;;;;5087934;28;20657;-84
2023/02/16 04:54:14;;;;;;;7.70;3.77;;;2.40;97.30;;;;;;5068686;28;20269;-84
2023/02/16 04:56:43;;;;;;;9.80;2.60;;;2.40;97.30;;;;;;5085436;28;20190;-84
2023/02/16 04:59:09;;;;;;;2.97;2.67;;;2.40;97.30;;;;;;5067289;28;20293;-84
2023/02/16 05:01:34;;;;;;;2.40;2.20;;;2.40;97.30;;;;;;5066183;28;20516;-85
2023/02/16 05:04:00;;;;;;;11.30;5.63;;;2.40;97.30;;;;;;5085143;28;20179;-83
2023/02/16 05:06:25;;;;;;;6.27;4.13;;;2.40;97.30;;;;;;5067761;28;20191;-85
2023/02/16 05:08:51;;;;;;;6.03;5.47;;;2.40;97.30;;;;;;5068729;28;20221;-84
2023/02/16 05:16:45;;;;;;;4.27;4.00;;;2.30;97.30;;;;;;5082253;28;20798;-84
2023/02/16 05:19:11;;;;;;;3.00;2.80;;;2.30;97.30;;;;;;5064088;28;20836;-84
2023/02/16 05:21:36;;;;;;;8.60;3.63;;;2.30;97.30;;;;;;5067857;28;20419;-84
2023/02/16 05:24:05;;;;;;;8.50;6.13;;;2.20;97.30;;;;;;5070121;28;20181;-84
2023/02/16 05:26:31;;;;;;;17.30;5.70;;;2.20;97.30;;;;;;5062223;28;20716;-83
2023/02/16 05:28:57;;;;;;;6.73;5.20;;;2.30;97.30;;;;;;5080576;28;20506;-84
2023/02/16 05:31:24;;;;;;;3.80;3.60;;;2.30;97.30;;;;;;5068046;28;20449;-84
2023/02/16 05:33:49;;;;;;;13.73;5.97;;;2.30;97.30;;;;;;5063766;28;20428;-84
2023/02/16 05:36:15;;;;;;;6.30;5.23;;;2.30;97.30;;;;;;5080405;28;20436;-84
2023/02/16 05:38:40;;;;;;;7.03;4.27;;;2.30;97.30;;;;;;5064518;28;20191;-83
2023/02/16 05:41:06;;;;;;;13.90;6.03;;;2.20;97.30;;;;;;5064436;28;20205;-84
2023/02/16 05:43:32;;;;;;;11.33;6.07;;;2.30;97.30;;;;;;5062213;28;20176;-85
2023/02/16 05:45:57;;;;;;;18.23;5.90;;;2.30;97.30;;;;;;5087854;28;20731;-84
2023/02/16 05:48:22;;;;;;;8.93;6.13;;;2.20;97.30;;;;;;5085458;28;20229;-84
2023/02/16 05:50:48;;;;;;;9.37;4.07;;;2.30;97.30;;;;;;5065798;28;20179;-86
2023/02/16 05:53:13;;;;;;;10.57;6.20;;;2.30;97.30;;;;;;5088154;28;20235;-83
2023/02/16 05:55:39;;;;;;;6.77;4.17;;;2.30;97.30;;;;;;5066332;28;20766;-84
2023/02/16 05:58:04;;;;;;;7.50;3.80;;;2.30;97.30;;;;;;5097303;28;20195;-84
2023/02/16 06:00:32;;;;;;;14.50;5.83;;;2.30;97.30;;;;;;5058909;28;20263;-84
2023/02/16 06:02:58;;;;;;;15.03;5.27;;;2.20;97.30;;;;;;5066570;28;20171;-82
2023/02/16 06:05:24;;;;;;;10.43;4.20;;;2.20;97.30;;;;;;5064536;28;20475;-86
2023/02/16 06:07:50;;;;;;;3.47;3.20;;;2.20;97.30;;;;;;5083728;28;20416;-84
2023/02/16 06:10:16;;;;;;;6.07;4.87;;;2.20;97.30;;;;;;5086034;28;20969;-86
2023/02/16 06:12:41;;;;;;;6.80;5.30;;;2.20;97.30;;;;;;5082134;28;20187;-86
2023/02/16 06:15:07;;;;;;;5.30;4.07;;;2.20;97.30;;;;;;5066641;28;20412;-86
2023/02/16 06:17:32;;;;;;;3.37;3.17;;;2.20;97.30;;;;;;5062949;28;20178;-87
2023/02/16 06:19:58;;;;;;;4.97;4.73;;;2.20;97.30;;;;;;5086947;28;20660;-86
2023/02/16 06:22:23;;;;;;;2.93;2.73;;;2.20;97.30;;;;;;5068024;28;20182;-86
2023/02/16 06:24:49;;;;;;;4.90;4.60;;;2.20;97.30;;;;;;5087717;28;20185;-85
2023/02/16 06:27:14;;;;;;;12.63;6.20;;;2.20;97.30;;;;;;5076830;28;20545;-85
2023/02/16 06:29:40;;;;;;;12.13;5.40;;;2.20;97.30;;;;;;5071635;28;20190;-85
2023/02/16 06:32:06;;;;;;;4.13;3.90;;;2.20;97.30;;;;;;5071626;28;20194;-85
2023/02/16 06:34:31;;;;;;;14.33;6.50;;;2.20;97.30;;;;;;5073802;28;20198;-83
2023/02/16 06:36:57;;;;;;;4.80;3.23;;;2.20;97.30;;;;;;5082265;28;20194;-86
2023/02/16 06:39:22;;;;;;;15.53;7.30;;;2.20;97.30;;;;;;5072522;28;20708;-85
2023/02/16 06:41:48;;;;;;;5.90;3.80;;;2.10;97.30;;;;;;5066793;28;20215;-84
2023/02/16 06:44:15;;;;;;;7.97;5.80;;;2.10;97.30;;;;;;5074256;28;20174;-85
2023/02/16 06:46:43;;;;;;;22.53;4.70;;;2.20;97.30;;;;;;5070170;28;20206;-86
2023/02/16 06:49:14;;;;;;;5.73;3.93;;;2.20;97.30;;;;;;5077666;28;20432;-85
2023/02/16 06:51:40;;;;;;;5.13;3.63;;;2.20;97.30;;;;;;5069608;28;20805;-86
2023/02/16 06:54:05;;;;;;;5.63;3.53;;;2.20;97.30;;;;;;5076980;28;20417;-85
2023/02/16 06:56:31;;;;;;;2.67;2.47;;;2.20;97.30;;;;;;5068285;28;20452;-85
2023/02/16 06:58:57;;;;;;;6.60;3.63;;;2.30;97.30;;;;;;5059362;28;20207;-85
2023/02/16 07:01:24;;;;;;;6.23;5.17;;;2.30;97.30;;;;;;5063170;28;20262;-86
2023/02/16 07:03:51;;;;;;;6.77;3.93;;;2.40;97.30;;;;;;5061523;28;20179;-85
2023/02/16 07:06:17;;;;;;;9.53;5.90;;;2.40;97.30;;;;;;5058917;28;20429;-86
2023/02/16 07:08:42;;;;;;;9.47;5.33;;;2.50;97.30;;;;;;5059974;28;20448;-85
2023/02/16 07:11:08;;;;;;;5.90;4.90;;;2.50;97.30;;;;;;5073206;28;20441;-85
2023/02/16 07:13:35;;;;;;;11.20;7.40;;;2.60;97.30;;;;;;5075685;28;20262;-85
2023/02/16 07:16:05;;;;;;;4.60;4.30;;;2.70;97.30;;;;;;5066110;28;20194;-85
2023/02/16 07:18:31;;;;;;;5.90;3.53;;;2.70;97.30;;;;;;5057165;28;20930;-85
2023/02/16 07:20:56;;;;;;;3.57;3.23;;;2.70;97.30;;;;;;5065405;28;20456;-84
2023/02/16 07:23:22;;;;;;;2.80;2.60;;;2.80;97.30;;;;;;5075495;28;20433;-86
2023/02/16 07:25:48;;;;;;;4.53;3.87;;;2.80;97.30;;;;;;5065501;28;20198;-85
2023/02/16 07:28:14;;;;;;;3.80;3.60;;;2.80;97.30;;;;;;5057845;28;20413;-85
2023/02/16 07:30:40;;;;;;;6.63;5.23;;;2.90;97.30;;;;;;5057523;28;20179;-86
2023/02/16 07:33:06;;;;;;;13.43;6.23;;;3.00;97.30;;;;;;5081736;28;20174;-86
2023/02/16 07:35:32;;;;;;;5.23;4.37;;;3.00;97.30;;;;;;5073119;28;20437;-86
2023/02/16 07:37:58;;;;;;;4.20;3.90;;;3.00;97.30;;;;;;5069681;28;20427;-86
2023/02/16 07:40:24;;;;;;;4.60;3.90;;;3.00;97.30;;;;;;5068359;28;20476;-85
2023/02/16 07:42:49;;;;;;;4.33;4.07;;;2.90;97.30;;;;;;5070517;28;20246;-85
2023/02/16 07:45:15;;;;;;;11.30;5.80;;;2.90;97.30;;;;;;5076640;28;20622;-86
2023/02/16 07:47:40;;;;;;;7.63;3.73;;;2.90;97.30;;;;;;5060613;28;20218;-87
2023/02/16 07:50:06;;;;;;;11.83;6.93;;;2.90;97.30;;;;;;5069235;28;20190;-85
2023/02/16 07:52:32;;;;;;;9.83;5.87;;;2.90;97.30;;;;;;5079140;28;20191;-85
2023/02/16 07:54:58;;;;;;;4.10;3.90;;;2.90;97.30;;;;;;5061101;28;20444;-86
2023/02/16 07:57:25;;;;;;;13.13;5.80;;;2.90;97.30;;;;;;5060753;28;20441;-86
2023/02/16 07:59:53;;;;;;;9.63;5.63;;;2.90;97.30;;;;;;5071305;28;20198;-85
2023/02/16 08:02:20;;;;;;;11.23;3.23;;;2.90;97.30;;;;;;5059789;28;20433;-85
2023/02/16 08:04:47;;;;;;;6.40;4.57;;;3.00;97.30;;;;;;5060075;28;20659;-86
2023/02/16 08:07:16;;;;;;;8.57;5.57;;;3.00;97.30;;;;;;5061614;28;21002;-84
2023/02/16 08:09:41;;;;;;;2.63;2.43;;;3.00;97.30;;;;;;5063167;28;20432;-85
2023/02/16 08:12:09;;;;;;;9.10;7.27;;;3.20;97.30;;;;;;5079161;28;20428;-84
2023/02/16 08:14:34;;;;;;;5.80;4.30;;;3.30;97.30;;;;;;5062351;28;20266;-85
2023/02/16 08:17:00;;;;;;;3.70;2.30;;;3.40;97.30;;;;;;5075359;28;20530;-85
2023/02/16 08:19:27;;;;;;;2.97;2.77;;;3.50;97.30;;;;;;5056877;28;20281;-85
2023/02/16 08:21:53;;;;;;;5.70;4.53;;;3.70;97.30;;;;;;5076846;28;20236;-86
2023/02/16 08:24:19;;;;;;;23.90;8.13;;;3.80;97.30;;;;;;5078584;28;20421;-85
2023/02/16 08:26:48;;;;;;;6.63;5.70;;;4.00;97.30;;;;;;5063564;28;20196;-85
2023/02/16 08:29:16;;;;;;;6.73;4.63;;;4.10;97.30;;;;;;5070786;28;20182;-85
2023/02/16 08:31:43;;;;;;;5.03;3.90;;;4.30;97.30;;;;;;5067989;28;20978;-86
2023/02/16 08:34:09;;;;;;;3.17;2.77;;;4.50;97.30;;;;;;5068681;28;20413;-85
2023/02/16 08:36:37;;;;;;;3.23;2.77;;;4.60;97.30;;;;;;5057796;28;20522;-85
2023/02/16 08:39:10;;;;;;;9.83;5.80;;;4.80;97.30;;;;;;5083546;28;20534;-85
2023/02/16 08:41:37;;;;;;;6.67;6.30;;;4.90;97.30;;;;;;5055245;28;20421;-86
2023/02/16 08:44:05;;;;;;;12.87;3.87;;;4.90;97.30;;;;;;5075964;28;20441;-86
2023/02/16 08:46:32;;;;;;;4.27;3.97;;;5.00;97.30;;;;;;5055725;28;20445;-85
2023/02/16 08:48:59;;;;;;;12.43;5.80;;;5.10;97.30;;;;;;5081218;28;20424;-85
2023/02/16 08:51:27;;;;;;;4.07;3.27;;;5.20;97.30;;;;;;5063133;28;20449;-85
2023/02/16 08:53:53;;;;;;;4.60;3.97;;;5.30;97.30;;;;;;5073836;28;20418;-86
2023/02/16 08:56:18;;;;;;;7.47;4.43;;;5.40;97.30;;;;;;5057039;28;20457;-84
2023/02/16 08:58:45;;;;;;;8.73;6.83;;;5.50;97.30;;;;;;5055220;28;20923;-85
2023/02/16 09:01:11;;;;;;;5.90;5.60;;;5.60;97.30;;;;;;5057703;28;20266;-86
2023/02/16 09:03:40;;;;;;;6.63;3.97;;;5.70;97.30;;;;;;5058175;28;20418;-85
2023/02/16 09:06:05;;;;;;;9.03;6.27;;;5.80;97.30;;;;;;5073654;28;20540;-86
2023/02/16 09:08:31;;;;;;;20.60;7.35;;;5.90;97.30;;;;;;5056365;28;20703;-85
2023/02/16 09:11:01;;;;;;;8.67;4.90;;;6.00;97.30;;;;;;5056660;28;20232;-85
2023/02/16 09:13:27;;;;;;;5.87;4.27;;;6.20;97.30;;;;;;5073492;28;20418;-84
2023/02/16 09:15:52;;;;;;;4.70;3.80;;;6.20;97.30;;;;;;5076432;28;20449;-85
2023/02/16 09:18:18;;;;;;;6.90;5.20;;;6.30;97.30;;;;;;5071667;28;20600;-84
2023/02/16 09:20:43;;;;;;;4.50;3.70;;;6.30;97.30;;;;;;5063465;28;20226;-83
2023/02/16 09:23:11;;;;;;;9.23;6.03;;;6.30;97.30;;;;;;5068240;28;20183;-84
2023/02/16 09:25:38;;;;;;;7.53;4.03;;;6.30;97.30;;;;;;5060695;28;20206;-85
2023/02/16 09:28:05;;;;;;;8.40;4.45;;;6.40;97.30;;;;;;5070149;28;20527;-84
2023/02/16 09:30:31;;;;;;;8.60;4.10;;;6.60;97.30;;;;;;5073890;28;20478;-83
2023/02/16 09:33:00;;;;;;;13.90;8.80;;;6.80;97.30;;;;;;5078165;28;20448;-85
2023/02/16 09:35:25;;;;;;;9.73;6.47;;;6.90;97.30;;;;;;5071010;28;20440;-84
2023/02/16 09:37:51;;;;;;;8.07;5.17;;;6.90;96.80;;;;;;5081057;28;20416;-85
2023/02/16 09:40:17;;;;;;;13.67;6.80;;;7.10;97.10;;;;;;5070760;28;20199;-84
2023/02/16 09:43:01;;;;;;;4.10;3.70;;;7.20;96.90;;;;;;5086585;28;20229;-84
2023/02/16 09:45:28;;;;;;;15.33;7.30;;;7.30;96.60;;;;;;5075389;28;20288;-83
2023/02/16 09:47:58;;;;;;;10.30;5.47;;;7.50;96.70;;;;;;5069067;28;20484;-84
2023/02/16 09:50:26;;;;;;;6.80;4.90;;;7.60;96.10;;;;;;5069073;28;20407;-84
2023/02/16 09:53:13;;;;;;;5.63;4.87;;;7.60;95.80;;;;;;5066930;28;20413;-84
2023/02/16 09:56:05;;;;;;;15.30;3.97;;;7.80;95.60;;;;;;5080143;28;20459;-84
2023/02/16 09:59:09;;;;;;;6.63;5.50;;;7.90;95.40;;;;;;5073194;28;20426;-83
2023/02/16 10:01:37;;;;;;;11.43;5.30;;;7.90;95.20;;;;;;5064767;28;20424;-84
2023/02/16 10:04:33;;;;;;;8.57;5.63;;;8.00;95.00;;;;;;5069455;28;20424;-84
2023/02/16 10:07:34;;;;;;;7.77;7.17;;;8.10;95.30;;;;;;5061056;28;20991;-85
2023/02/16 10:10:01;;;;;;;8.53;4.60;;;8.20;94.60;;;;;;5068750;28;20408;-85
2023/02/16 10:12:35;;;;;;;12.93;8.17;;;8.30;94.50;;;;;;5066804;28;20421;-84
2023/02/16 10:15:28;;;;;;;7.83;6.03;;;8.40;94.60;;;;;;5067536;28;20403;-84
2023/02/16 10:18:07;;;;;;;17.13;7.63;;;8.50;94.00;;;;;;5056490;28;20413;-84
2023/02/16 10:20:36;;;;;;;7.37;5.50;;;8.60;94.00;;;;;;5058484;28;20506;-84
2023/02/16 10:23:30;;;;;;;5.77;4.70;;;8.60;93.90;;;;;;5096232;28;20446;-84
2023/02/16 10:25:59;;;;;;;12.20;6.87;;;8.60;94.00;;;;;;5056699;28;20524;-84
2023/02/16 10:28:32;;;;;;;10.23;6.23;;;8.70;94.10;;;;;;5058234;28;20424;-85
2023/02/16 10:31:02;;;;;;;10.83;6.00;;;8.80;93.80;;;;;;5066366;28;20420;-85
2023/02/16 10:33:45;;;;;;;5.50;4.13;;;8.80;93.80;;;;;;5067136;28;20417;-84
2023/02/16 10:36:40;;;;;;;5.93;5.13;;;9.00;93.90;;;;;;5062790;28;20451;-85
2023/02/16 10:39:23;;;;;;;19.53;5.97;;;9.10;93.40;;;;;;5057993;28;20461;-82
2023/02/16 10:42:03;;;;;;;12.07;5.30;;;9.20;93.40;;;;;;5066194;28;20417;-83
2023/02/16 10:44:39;;;;;;;17.37;6.10;;;9.30;92.90;;;;;;5062522;28;20271;-86
2023/02/16 10:47:14;;;;;;;6.00;3.47;;;9.30;92.70;;;;;;5057425;28;20488;-82
2023/02/16 10:49:40;;;;;;;12.50;6.90;;;9.40;92.90;;;;;;5065272;28;20977;-82
2023/02/16 10:52:07;;;;;;;7.13;3.53;;;9.40;92.70;;;;;;5065251;28;20416;-84
2023/02/16 10:54:33;;;;;;;13.20;7.00;;;9.50;92.60;;;;;;5075669;28;20275;-84
2023/02/16 10:57:05;;;;;;;5.47;4.17;;;9.50;92.70;;;;;;5065762;28;20466;-83
2023/02/16 10:59:44;;;;;;;11.60;5.43;;;9.50;92.20;;;;;;5070018;28;20465;-83
2023/02/16 11:02:22;;;;;;;11.67;4.90;;;9.50;92.40;;;;;;5073469;28;20989;-85
2023/02/16 11:04:51;;;;;;;9.23;5.53;;;9.60;92.40;;;;;;5075743;28;20419;-84
2023/02/16 11:07:22;;;;;;;6.20;5.67;;;9.70;92.00;;;;;;5076345;28;20441;-84
2023/02/16 11:09:52;;;;;;;8.43;3.77;;;9.80;91.90;;;;;;5055986;28;20433;-83
2023/02/16 11:12:38;;;;;;;28.30;6.40;;;9.90;91.80;;;;;;5058212;28;20502;-83
2023/02/16 11:15:12;;;;;;;13.87;6.97;;;10.00;91.30;;;;;;5059143;28;20618;-84
2023/02/16 11:18:11;;;;;;;16.07;5.33;;;10.00;91.20;;;;;;5073265;28;20421;-81
2023/02/16 11:20:41;;;;;;;17.90;8.50;;;10.10;91.10;;;;;;5052910;28;20469;-82
2023/02/16 11:23:30;;;;;;;6.67;5.83;;;10.10;91.20;;;;;;5057788;28;20421;-82
2023/02/16 11:26:15;;;;;;;9.80;7.13;;;10.20;91.10;;;;;;5056205;28;20974;-81
2023/02/16 11:28:43;;;;;;;12.27;5.40;;;10.30;90.50;;;;;;5040069;28;20509;-84
2023/02/16 11:31:36;;;;;;;4.67;4.30;;;10.20;90.80;;;;;;5050511;28;20442;-84
2023/02/16 11:34:22;;;;;;;27.63;8.37;;;10.20;90.80;;;;;;5053891;28;20421;-85
2023/02/16 11:36:48;;;;;;;8.50;5.83;;;10.20;90.80;;;;;;5056324;28;20447;-82
2023/02/16 11:39:20;;;;;;;5.87;5.00;;;10.20;90.70;;;;;;5053513;28;20461;-84
2023/02/16 11:42:01;;;;;;;12.20;6.27;;;10.30;90.90;;;;;;5078636;28;20175;-84
2023/02/16 11:44:31;;;;;;;11.17;6.47;;;10.50;90.60;;;;;;5059736;28;20389;-82
2023/02/16 11:46:59;;;;;;;6.43;5.17;;;10.60;90.20;;;;;;5059372;28;20266;-82
2023/02/16 11:49:31;;;;;;;14.63;7.47;;;10.70;89.80;;;;;;5055837;28;20416;-85
2023/02/16 11:51:57;;;;;;;6.47;4.93;;;10.70;89.90;;;;;;5061284;28;20421;-84
2023/02/16 11:54:22;;;;;;;12.70;6.13;;;10.70;89.60;;;;;;5060467;28;20416;-85
2023/02/16 11:57:05;;;;;;;12.33;6.40;;;10.90;89.20;;;;;;5059716;28;20808;-82
2023/02/16 11:59:36;;;;;;;15.07;6.83;;;10.80;89.10;;;;;;5054425;28;20202;-82
2023/02/16 12:02:16;;;;;;;19.83;7.10;;;10.80;89.20;;;;;;5056726;28;20424;-84
2023/02/16 12:05:07;;;;;;;12.37;5.27;;;10.90;88.90;;;;;;5055683;28;20927;-81
2023/02/16 12:07:45;;;;;;;21.57;7.63;;;11.00;89.60;;;;;;5052588;28;20433;-82
2023/02/16 12:10:17;;;;;;;;;;;11.10;88.70;;;;;;5054069;28;20438;-83
2023/02/16 12:12:58;;;;;;;;;;;11.10;88.80;;;;;;5052595;28;20235;-84
2023/02/16 12:15:27;;;;;;;;;;;11.10;89.20;;;;;;5071602;28;20722;-83
2023/02/16 12:18:15;;;;;;;11.70;5.35;;;11.10;88.70;;;;;;5072902;28;20433;-85
2023/02/16 12:20:52;;;;;;;;;;;11.10;88.70;;;;;;5056383;28;20480;-84
2023/02/16 12:23:34;;;;;;;11.80;3.80;;;11.20;88.40;;;;;;5055111;28;20255;-84
2023/02/16 12:26:30;;;;;;;22.80;5.45;;;11.40;88.00;;;;;;5056753;28;20505;-82
2023/02/16 12:29:15;;;;;;;;;;;11.40;87.80;;;;;;5073809;28;20587;-84
2023/02/16 12:31:51;;;;;;;;;;;11.60;88.40;;;;;;5058453;28;20274;-84
2023/02/16 12:34:35;;;;;;;7.00;4.20;;;11.70;87.70;;;;;;5056422;28;20243;-85
2023/02/16 12:37:20;;;;;;;7.70;6.60;;;12.00;87.30;;;;;;5058049;28;20239;-83
2023/02/16 12:40:31;;;;;;;5.40;4.00;;;12.30;86.90;;;;;;5055664;28;20490;-83
2023/02/16 12:43:19;;;;;;;8.70;6.90;;;12.70;85.80;;;;;;5070200;28;20253;-84
2023/02/16 12:45:45;;;;;;;;;;;12.90;85.40;;;;;;5081785;28;20273;-85
2023/02/16 12:48:10;;;;;;;;;;;12.80;85.10;;;;;;5071078;28;20243;-84
2023/02/16 12:50:39;;;;;;;;;;;12.80;85.60;;;;;;5068981;28;20241;-84
2023/02/16 12:53:09;;;;;;;;;;;12.70;85.20;;;;;;5069813;28;20171;-85
2023/02/16 12:55:41;;;;;;;16.80;6.50;;;12.70;85.30;;;;;;5094491;28;20181;-84
2023/02/16 12:58:07;;;;;;;;;;;12.80;85.00;;;;;;5065488;28;20239;-84
2023/02/16 13:00:39;;;;;;;;;;;13.00;85.60;;;;;;5096253;28;20204;-85
2023/02/16 13:03:15;;;;;;;;;;;13.30;84.50;;;;;;5062756;28;20179;-85
2023/02/16 13:05:42;;;;;;;;;;;13.30;84.30;;;;;;5063414;28;20168;-84
2023/02/16 13:08:14;;;;;;;;;;;13.40;84.30;;;;;;5069087;28;20336;-84
2023/02/16 13:10:52;;;;;;;;;;;13.50;84.00;;;;;;5077295;28;20251;-84
2023/02/16 13:13:20;;;;;;;;;;;13.60;83.60;;;;;;5085387;28;20199;-84
2023/02/16 13:15:51;;;;;;;;;;;13.80;83.10;;;;;;5084255;28;20700;-84
2023/02/16 13:18:17;;;;;;;;;;;13.80;82.40;;;;;;5067571;28;20232;-83
2023/02/16 13:20:44;;;;;;;;;;;13.70;82.30;;;;;;5066187;28;20631;-84
2023/02/16 13:23:29;;;;;;;;;;;13.70;82.30;;;;;;5066207;28;20035;-83
2023/02/16 13:26:22;;;;;;;;;;;13.70;81.90;;;;;;5046379;28;20354;-84
2023/02/16 13:28:54;;;;;;;;;;;13.80;81.90;;;;;;5048553;28;20732;-84
2023/02/16 13:31:29;;;;;;;;;;;13.90;81.80;;;;;;5048459;28;20336;-84
2023/02/16 13:34:10;;;;;;;;;;;13.90;81.20;;;;;;5065977;28;20171;-83
2023/02/16 13:36:41;;;;;;;;;;;13.80;81.10;;;;;;5055109;28;20310;-83
2023/02/16 13:39:21;;;;;;;;;;;13.70;81.30;;;;;;5049330;28;20241;-83
2023/02/16 13:41:54;;;;;;;;;;;13.70;81.50;;;;;;5053647;28;20156;-83
2023/02/16 13:44:22;;;;;;;;;;;13.70;81.60;;;;;;5070789;28;20458;-84
2023/02/16 13:46:51;;;;;;;;;;;13.80;81.30;;;;;;5073605;28;20267;-83
2023/02/16 13:49:28;;;;;;;;;;;13.70;81.60;;;;;;5049074;28;20223;-83
2023/02/16 13:51:53;;;;;;;;;;;13.80;81.60;;;;;;5054029;28;20199;-84
2023/02/16 13:54:33;;;;;;;12.30;6.20;;;13.70;81.70;;;;;;5051285;28;20229;-82
2023/02/16 13:57:03;;;;;;;21.80;8.20;;;13.70;82.00;;;;;;5050864;28;20272;-83
2023/02/16 13:59:29;;;;;;;9.20;4.80;;;13.90;81.40;;;;;;5048303;28;20279;-84
2023/02/16 14:01:56;;;;;;;19.20;4.60;;;13.90;80.70;;;;;;5055502;28;20219;-81
2023/02/16 14:04:21;;;;;;;;;;;13.90;81.00;;;;;;5056220;28;20287;-84